createdAt,value
2019-05-20T00:00:25.813Z,10.53
2019-05-20T00:03:30.004Z,12.23
2019-05-20T00:06:33.937Z,10.80
2019-05-20T00:09:38.768Z,10.13
2019-05-20T00:12:42.887Z,8.23
2019-05-20T00:15:47.005Z,8.73
2019-05-20T00:18:51.287Z,8.23
2019-05-20T00:21:55.844Z,8.73
2019-05-20T00:25:00.279Z,7.70
2019-05-20T00:28:04.499Z,7.80
2019-05-20T00:31:08.824Z,8.10
2019-05-20T00:34:13.268Z,8.23
2019-05-20T00:37:17.562Z,8.43
2019-05-20T00:40:22.321Z,7.70
2019-05-20T00:43:27.320Z,8.10
2019-05-20T00:46:31.385Z,7.77
2019-05-20T00:49:35.290Z,7.43
2019-05-20T00:52:39.691Z,7.47
2019-05-20T00:55:43.689Z,7.57
2019-05-20T00:58:48.238Z,7.77
2019-05-20T01:01:53.303Z,8.00
2019-05-20T01:04:57.565Z,8.43
2019-05-20T01:08:01.507Z,8.50
2019-05-20T01:11:05.674Z,8.73
2019-05-20T01:14:10.261Z,8.70
2019-05-20T01:17:14.347Z,8.43
2019-05-20T01:20:18.819Z,8.83
2019-05-20T01:23:22.983Z,8.80
2019-05-20T01:26:27.427Z,8.93
2019-05-20T01:29:31.285Z,9.30
2019-05-20T01:32:35.936Z,8.43
2019-05-20T01:35:40.098Z,9.33
2019-05-20T01:38:44.215Z,9.07
2019-05-20T01:41:49.194Z,8.93
2019-05-20T01:44:53.488Z,9.03
2019-05-20T01:47:58.379Z,9.63
2019-05-20T01:51:02.610Z,9.10
2019-05-20T01:54:07.174Z,9.10
2019-05-20T01:57:11.409Z,9.13
2019-05-20T02:00:16.192Z,8.40
2019-05-20T02:03:31.251Z,9.20
2019-05-20T02:06:27.131Z,8.30
2019-05-20T02:09:31.249Z,8.63
2019-05-20T02:12:35.875Z,8.57
2019-05-20T02:15:55.453Z,8.17
2019-05-20T02:19:00.083Z,8.70
2019-05-20T02:22:04.101Z,8.47
2019-05-20T02:25:08.111Z,8.90
2019-05-20T02:28:12.556Z,9.10
2019-05-20T02:31:16.593Z,8.10
2019-05-20T02:34:20.511Z,8.43
2019-05-20T02:37:25.102Z,8.20
2019-05-20T02:40:29.328Z,8.40
2019-05-20T02:43:33.533Z,8.83
2019-05-20T02:46:37.532Z,9.43
2019-05-20T02:49:41.998Z,9.40
2019-05-20T02:52:46.608Z,9.30
2019-05-20T02:55:50.859Z,8.77
2019-05-20T02:58:54.971Z,8.93
2019-05-20T03:01:59.169Z,8.43
2019-05-20T03:05:03.029Z,9.40
2019-05-20T03:08:07.391Z,10.90
2019-05-20T03:11:11.625Z,14.00
2019-05-20T03:14:15.948Z,14.47
2019-05-20T03:17:20.486Z,17.73
2019-05-20T03:20:24.492Z,19.57
2019-05-20T03:23:28.501Z,18.07
2019-05-20T03:26:32.428Z,17.63
2019-05-20T03:29:36.890Z,16.17
2019-05-20T03:32:41.645Z,16.93
2019-05-20T03:35:45.809Z,14.07
2019-05-20T03:38:50.230Z,13.73
2019-05-20T03:41:54.974Z,13.90
2019-05-20T03:44:59.315Z,17.67
2019-05-20T03:48:03.909Z,15.67
2019-05-20T03:51:08.850Z,15.53
2019-05-20T03:54:13.276Z,15.97
2019-05-20T03:57:17.203Z,14.90
2019-05-20T04:00:37.661Z,13.67
2019-05-20T04:03:42.144Z,13.77
2019-05-20T04:06:46.757Z,13.77
2019-05-20T04:09:50.867Z,13.20
2019-05-20T04:12:55.304Z,12.63
2019-05-20T04:16:00.548Z,13.03
2019-05-20T04:19:04.795Z,11.70
2019-05-20T04:22:08.963Z,11.90
2019-05-20T04:25:13.151Z,14.47
2019-05-20T04:28:17.628Z,16.07
2019-05-20T04:31:21.631Z,15.63
2019-05-20T04:34:25.717Z,13.37
2019-05-20T04:37:30.140Z,14.93
2019-05-20T04:40:34.141Z,14.17
2019-05-20T04:43:38.615Z,15.27
2019-05-20T04:46:43.613Z,15.00
2019-05-20T04:49:48.199Z,13.73
2019-05-20T04:52:52.864Z,13.40
2019-05-20T04:55:57.685Z,12.87
2019-05-20T04:59:01.919Z,13.47
2019-05-20T05:02:06.238Z,14.10
2019-05-20T05:05:10.615Z,14.07
2019-05-20T05:08:14.717Z,13.10
2019-05-20T05:11:19.273Z,12.87
2019-05-20T05:14:23.205Z,13.30
2019-05-20T05:17:27.254Z,13.07
2019-05-20T05:20:31.979Z,12.33
2019-05-20T05:23:36.550Z,11.60
2019-05-20T05:26:40.803Z,12.13
2019-05-20T05:29:45.058Z,12.03
2019-05-20T05:32:49.293Z,11.90
2019-05-20T05:35:53.963Z,10.80
2019-05-20T05:38:58.624Z,11.33
2019-05-20T05:42:03.433Z,11.23
2019-05-20T05:45:08.473Z,11.27
2019-05-20T05:48:12.327Z,11.40
2019-05-20T05:51:16.587Z,10.93
2019-05-20T05:54:20.978Z,10.87
2019-05-20T05:57:25.776Z,10.00
2019-05-20T06:00:29.955Z,11.60
2019-05-20T06:03:34.180Z,10.13
2019-05-20T06:06:38.442Z,9.47
2019-05-20T06:09:42.363Z,9.97
2019-05-20T06:12:46.841Z,10.43
2019-05-20T06:15:50.768Z,9.53
2019-05-20T06:18:55.113Z,9.97
2019-05-20T06:21:59.033Z,10.00
2019-05-20T06:25:03.680Z,9.83
2019-05-20T06:28:07.664Z,9.63
2019-05-20T06:31:11.687Z,8.93
2019-05-20T06:34:15.663Z,10.30
2019-05-20T06:37:21.590Z,9.73
2019-05-20T06:40:25.605Z,9.67
2019-05-20T06:43:30.119Z,9.60
2019-05-20T06:46:34.352Z,9.90
2019-05-20T06:49:38.813Z,9.67
2019-05-20T06:52:42.839Z,9.50
2019-05-20T06:55:47.173Z,10.43
2019-05-20T06:58:51.277Z,9.37
2019-05-20T07:01:56.112Z,9.93
2019-05-20T07:05:00.637Z,10.17
2019-05-20T07:08:05.057Z,10.57
2019-05-20T07:11:09.690Z,10.03
2019-05-20T07:14:14.444Z,9.57
2019-05-20T07:17:18.753Z,10.33
2019-05-20T07:20:23.066Z,9.37
2019-05-20T07:23:27.388Z,8.67
2019-05-20T07:26:31.670Z,9.70
2019-05-20T07:29:36.167Z,9.23
2019-05-20T07:32:40.385Z,9.60
2019-05-20T07:35:44.782Z,9.70
2019-05-20T07:38:49.053Z,9.53
2019-05-20T07:41:53.317Z,9.40
2019-05-20T07:44:57.775Z,8.67
2019-05-20T07:48:02.423Z,8.57
2019-05-20T07:51:07.678Z,8.97
2019-05-20T07:54:13.238Z,8.53
2019-05-20T07:57:20.642Z,8.37
2019-05-20T08:00:24.694Z,7.30
2019-05-20T08:03:28.725Z,7.90
2019-05-20T08:06:32.820Z,7.97
2019-05-20T08:09:44.653Z,8.17
2019-05-20T08:12:42.818Z,7.97
2019-05-20T08:15:46.729Z,7.60
2019-05-20T08:18:51.045Z,8.20
2019-05-20T08:21:55.285Z,7.73
2019-05-20T08:24:59.276Z,8.17
2019-05-20T08:28:03.544Z,7.37
2019-05-20T08:31:07.775Z,7.83
2019-05-20T08:34:12.032Z,7.90
2019-05-20T08:37:16.559Z,7.83
2019-05-20T08:40:20.692Z,7.50
2019-05-20T08:43:25.000Z,7.10
2019-05-20T08:46:29.929Z,7.33
2019-05-20T08:49:34.688Z,7.90
2019-05-20T08:52:39.358Z,8.40
2019-05-20T08:55:43.592Z,8.10
2019-05-20T08:58:47.739Z,8.00
2019-05-20T09:01:52.060Z,7.77
2019-05-20T09:04:56.594Z,8.17
2019-05-20T09:08:03.427Z,7.90
2019-05-20T09:11:06.343Z,8.13
2019-05-20T09:14:10.713Z,8.43
2019-05-20T09:17:15.001Z,8.03
2019-05-20T09:20:19.746Z,8.00
2019-05-20T09:23:24.090Z,9.23
2019-05-20T09:26:28.488Z,8.10
2019-05-20T09:29:32.656Z,7.23
2019-05-20T09:32:37.242Z,7.37
2019-05-20T09:35:42.009Z,7.57
2019-05-20T09:38:46.286Z,7.17
2019-05-20T09:41:50.525Z,8.23
2019-05-20T09:44:55.264Z,8.00
2019-05-20T09:47:59.485Z,7.47
2019-05-20T09:51:03.743Z,7.60
2019-05-20T09:54:08.008Z,7.37
2019-05-20T09:57:12.434Z,7.83
2019-05-20T10:00:16.927Z,8.43
2019-05-20T10:03:21.488Z,8.10
2019-05-20T10:06:26.059Z,8.60
2019-05-20T10:09:30.338Z,8.60
2019-05-20T10:12:45.262Z,9.17
2019-05-20T10:15:39.910Z,8.90
2019-05-20T10:18:43.913Z,8.37
2019-05-20T10:21:47.900Z,8.93
2019-05-20T10:24:51.831Z,9.27
2019-05-20T10:27:57.759Z,9.83
2019-05-20T10:31:02.030Z,10.17
2019-05-20T10:34:06.140Z,9.90
2019-05-20T10:37:10.142Z,10.47
2019-05-20T10:40:14.693Z,10.33
2019-05-20T10:43:19.236Z,10.53
2019-05-20T10:46:23.340Z,10.70
2019-05-20T10:49:27.447Z,11.23
2019-05-20T10:52:31.605Z,11.37
2019-05-20T10:55:36.018Z,11.97
2019-05-20T10:58:40.111Z,11.80
2019-05-20T11:01:44.389Z,12.20
2019-05-20T11:04:48.496Z,12.93
2019-05-20T11:07:53.328Z,12.33
2019-05-20T11:10:57.160Z,12.53
2019-05-20T11:14:01.309Z,12.30
2019-05-20T11:17:05.234Z,12.90
2019-05-20T11:20:09.722Z,14.17
2019-05-20T11:23:14.226Z,14.00
2019-05-20T11:26:18.959Z,14.23
2019-05-20T11:29:23.156Z,13.87
2019-05-20T11:32:27.181Z,14.40
2019-05-20T11:35:31.128Z,15.13
2019-05-20T11:38:35.129Z,18.30
2019-05-20T11:41:52.928Z,17.03
2019-05-20T11:44:45.075Z,19.60
2019-05-20T11:47:49.274Z,22.70
2019-05-20T11:50:53.283Z,23.73
2019-05-20T11:53:57.137Z,24.30
2019-05-20T11:57:01.555Z,24.77
2019-05-20T12:00:06.185Z,23.73
2019-05-20T12:03:10.845Z,24.97
2019-05-20T12:06:14.804Z,26.07
2019-05-20T12:09:18.734Z,26.30
2019-05-20T12:12:23.361Z,24.87
2019-05-20T12:15:27.624Z,25.47
2019-05-20T12:18:32.335Z,25.57
2019-05-20T12:21:36.665Z,24.93
2019-05-20T12:24:41.363Z,25.17
2019-05-20T12:27:45.842Z,24.03
2019-05-20T12:30:50.104Z,22.37
2019-05-20T12:33:54.049Z,23.63
2019-05-20T12:36:58.019Z,22.97
2019-05-20T12:40:07.605Z,23.20
2019-05-20T12:43:08.225Z,21.97
2019-05-20T12:46:12.157Z,19.67
2019-05-20T12:49:16.313Z,21.33
2019-05-20T12:52:20.622Z,18.70
2019-05-20T12:55:24.655Z,19.10
2019-05-20T12:58:28.986Z,17.10
2019-05-20T13:01:33.082Z,16.20
2019-05-20T13:04:37.496Z,15.83
2019-05-20T13:07:41.797Z,14.93
2019-05-20T13:10:46.507Z,16.03
2019-05-20T13:13:50.793Z,15.37
2019-05-20T13:16:54.645Z,12.73
2019-05-20T13:19:58.856Z,14.80
2019-05-20T13:23:06.153Z,14.63
2019-05-20T13:26:09.869Z,16.37
2019-05-20T13:29:14.312Z,15.93
2019-05-20T13:32:18.508Z,17.10
2019-05-20T13:35:22.730Z,16.60
2019-05-20T13:38:26.659Z,17.27
2019-05-20T13:41:31.577Z,15.50
2019-05-20T13:44:36.129Z,16.27
2019-05-20T13:47:40.862Z,15.27
2019-05-20T13:50:45.116Z,15.87
2019-05-20T13:53:49.461Z,14.70
2019-05-20T13:56:53.868Z,15.67
2019-05-20T13:59:58.026Z,15.63
2019-05-20T14:03:02.011Z,15.50
2019-05-20T14:06:06.121Z,15.97
2019-05-20T14:09:10.685Z,16.60
2019-05-20T14:12:14.957Z,15.73
2019-05-20T14:15:19.353Z,17.93
2019-05-20T14:18:23.875Z,18.30
2019-05-20T14:21:28.188Z,20.03
2019-05-20T14:24:32.317Z,20.40
2019-05-20T14:27:36.319Z,22.53
2019-05-20T14:30:40.629Z,21.53
2019-05-20T14:33:45.146Z,22.20
2019-05-20T14:36:52.692Z,21.80
2019-05-20T14:39:54.934Z,23.83
2019-05-20T14:42:58.992Z,23.50
2019-05-20T14:46:03.697Z,23.13
2019-05-20T14:49:08.213Z,24.00
2019-05-20T14:52:12.434Z,20.33
2019-05-20T14:55:16.463Z,21.57
2019-05-20T14:58:20.479Z,21.93
2019-05-20T15:01:24.950Z,22.73
2019-05-20T15:04:29.087Z,24.67
2019-05-20T15:07:33.041Z,24.17
2019-05-20T15:10:37.293Z,23.67
2019-05-20T15:13:41.998Z,25.03
2019-05-20T15:16:46.262Z,25.07
2019-05-20T15:19:50.911Z,25.67
2019-05-20T15:22:55.399Z,24.70
2019-05-20T15:25:59.680Z,26.73
2019-05-20T15:29:04.561Z,27.93
2019-05-20T15:32:09.310Z,27.50
2019-05-20T15:35:13.443Z,27.47
2019-05-20T15:38:18.813Z,27.90
2019-05-20T15:41:23.205Z,27.00
2019-05-20T15:44:27.665Z,29.47
2019-05-20T15:47:32.493Z,31.90
2019-05-20T15:50:36.739Z,36.93
2019-05-20T15:53:41.038Z,29.13
2019-05-20T15:56:45.703Z,31.97
2019-05-20T15:59:49.894Z,31.80
2019-05-20T16:02:53.916Z,31.23
2019-05-20T16:06:00.018Z,33.30
2019-05-20T16:09:05.198Z,30.37
2019-05-20T16:12:09.695Z,32.47
2019-05-20T16:15:14.107Z,32.47
2019-05-20T16:18:18.642Z,32.30
2019-05-20T16:21:23.339Z,32.33
2019-05-20T16:24:27.289Z,31.87
2019-05-20T16:27:32.830Z,29.97
2019-05-20T16:30:37.028Z,32.93
2019-05-20T16:33:41.423Z,32.83
2019-05-20T16:36:45.757Z,33.43
2019-05-20T16:39:50.581Z,33.60
2019-05-20T16:42:54.846Z,34.37
2019-05-20T16:45:58.863Z,33.20
2019-05-20T16:49:03.113Z,33.53
2019-05-20T16:52:07.106Z,35.67
2019-05-20T16:55:11.355Z,35.27
2019-05-20T16:58:15.600Z,35.97
2019-05-20T17:01:19.802Z,34.97
2019-05-20T17:04:23.929Z,35.53
2019-05-20T17:07:28.024Z,34.13
2019-05-20T17:10:31.903Z,35.53
2019-05-20T17:13:36.170Z,34.80
2019-05-20T17:16:40.326Z,33.50
2019-05-20T17:19:44.726Z,34.80
2019-05-20T17:22:49.049Z,34.60
2019-05-20T17:25:53.520Z,36.53
2019-05-20T17:28:58.100Z,37.33
2019-05-20T17:32:02.333Z,36.60
2019-05-20T17:35:06.667Z,38.13
2019-05-20T17:38:10.997Z,36.80
2019-05-20T17:41:15.208Z,38.20
2019-05-20T17:44:20.032Z,31.17
2019-05-20T17:47:25.025Z,33.20
2019-05-20T17:50:29.034Z,37.33
2019-05-20T17:53:33.935Z,31.30
2019-05-20T17:56:37.997Z,36.20
2019-05-20T17:59:42.369Z,35.87
2019-05-20T18:02:47.029Z,38.73
2019-05-20T18:05:51.338Z,39.13
2019-05-20T18:08:57.002Z,39.50
2019-05-20T18:12:01.293Z,37.93
2019-05-20T18:15:05.862Z,40.20
2019-05-20T18:18:10.720Z,40.47
2019-05-20T18:21:15.285Z,36.37
2019-05-20T18:24:19.571Z,42.57
2019-05-20T18:27:23.677Z,43.23
2019-05-20T18:30:28.067Z,40.43
2019-05-20T18:33:32.592Z,41.13
2019-05-20T18:36:36.510Z,40.20
2019-05-20T18:39:40.697Z,40.63
2019-05-20T18:42:45.341Z,43.10
2019-05-20T18:45:50.185Z,42.57
2019-05-20T18:48:54.399Z,42.47
2019-05-20T18:51:59.028Z,40.87
2019-05-20T18:55:03.367Z,43.10
2019-05-20T18:58:07.566Z,43.97
2019-05-20T19:01:11.580Z,43.40
2019-05-20T19:04:15.607Z,44.53
2019-05-20T19:07:19.959Z,42.43
2019-05-20T19:10:24.832Z,44.50
2019-05-20T19:13:29.131Z,44.47
2019-05-20T19:16:33.552Z,45.73
2019-05-20T19:19:37.677Z,43.53
2019-05-20T19:22:42.022Z,43.80
2019-05-20T19:25:46.399Z,45.87
2019-05-20T19:28:50.693Z,46.07
2019-05-20T19:32:01.851Z,45.00
2019-05-20T19:35:01.411Z,45.17
2019-05-20T19:38:05.416Z,44.10
2019-05-20T19:41:10.317Z,41.80
2019-05-20T19:44:14.354Z,45.20
2019-05-20T19:47:18.351Z,43.00
2019-05-20T19:50:22.701Z,41.27
2019-05-20T19:53:26.994Z,42.17
2019-05-20T19:56:31.182Z,42.90
2019-05-20T19:59:35.190Z,40.70
2019-05-20T20:02:39.420Z,43.60
2019-05-20T20:05:43.361Z,41.80
2019-05-20T20:08:47.619Z,40.60
2019-05-20T20:11:51.629Z,41.87
2019-05-20T20:14:55.496Z,41.83
2019-05-20T20:18:00.210Z,40.77
2019-05-20T20:21:04.628Z,39.73
2019-05-20T20:24:09.488Z,39.30
2019-05-20T20:27:13.535Z,41.00
2019-05-20T20:30:18.085Z,41.57
2019-05-20T20:33:21.941Z,42.67
2019-05-20T20:36:25.885Z,43.93
2019-05-20T20:39:29.881Z,41.13
2019-05-20T20:42:34.086Z,41.57
2019-05-20T20:45:38.349Z,42.13
2019-05-20T20:48:42.489Z,43.67
2019-05-20T20:51:46.426Z,43.77
2019-05-20T20:54:51.262Z,41.33
2019-05-20T20:57:56.043Z,44.20
2019-05-20T21:01:01.008Z,44.00
2019-05-20T21:04:05.213Z,41.63
2019-05-20T21:07:09.836Z,44.37
2019-05-20T21:10:14.155Z,44.63
2019-05-20T21:13:19.254Z,43.97
2019-05-20T21:16:23.181Z,44.80
2019-05-20T21:19:28.396Z,43.30
2019-05-20T21:22:32.269Z,44.50
2019-05-20T21:25:37.360Z,41.83
2019-05-20T21:28:41.582Z,42.67
2019-05-20T21:31:45.814Z,42.83
2019-05-20T21:34:50.346Z,42.93
2019-05-20T21:37:54.929Z,43.10
2019-05-20T21:40:59.070Z,42.17
2019-05-20T21:44:03.374Z,41.50
2019-05-20T21:47:08.358Z,39.93
2019-05-20T21:50:30.480Z,38.93
2019-05-20T21:53:34.817Z,40.73
2019-05-20T21:56:39.088Z,41.23
2019-05-20T21:59:43.196Z,40.87
2019-05-20T22:02:47.713Z,40.53
2019-05-20T22:05:52.459Z,41.30
2019-05-20T22:08:56.788Z,41.07
2019-05-20T22:12:01.462Z,36.53
2019-05-20T22:15:05.665Z,38.70
2019-05-20T22:18:09.835Z,39.07
2019-05-20T22:21:15.703Z,40.63
2019-05-20T22:24:19.924Z,40.30
2019-05-20T22:27:24.139Z,41.57
2019-05-20T22:30:28.259Z,42.20
2019-05-20T22:33:40.880Z,41.00
2019-05-20T22:36:38.226Z,35.87
2019-05-20T22:39:42.780Z,38.47
2019-05-20T22:42:47.393Z,38.93
2019-05-20T22:45:51.796Z,39.17
2019-05-20T22:48:56.249Z,36.97
2019-05-20T22:52:00.265Z,35.47
2019-05-20T22:55:04.785Z,37.13
2019-05-20T22:58:08.960Z,36.03
2019-05-20T23:01:13.202Z,36.33
2019-05-20T23:04:17.625Z,34.13
2019-05-20T23:07:21.829Z,33.77
2019-05-20T23:10:25.753Z,35.33
2019-05-20T23:13:30.349Z,34.17
2019-05-20T23:16:34.365Z,34.33
2019-05-20T23:19:39.363Z,34.70
2019-05-20T23:22:44.006Z,36.17
2019-05-20T23:25:48.365Z,35.70
2019-05-20T23:28:52.487Z,37.03
2019-05-20T23:31:56.750Z,31.50
2019-05-20T23:35:01.451Z,35.70
2019-05-20T23:38:05.650Z,33.93
2019-05-20T23:41:09.597Z,36.87
2019-05-20T23:44:13.937Z,33.73
2019-05-20T23:47:18.084Z,33.30
2019-05-20T23:50:22.340Z,33.23
2019-05-20T23:53:26.817Z,31.10
2019-05-20T23:56:31.476Z,27.37
2019-05-20T23:59:35.374Z,29.03
